Plainfield, New York
Current Conditions -  °F | °C
As of 1:53 AM on Sunday 26 Oct 2014 (Local Time) from KRME Reporting Station
Few Clouds Few Clouds  
Wind Chill:   Ceiling: Unl
Heat Index:   Visibility: 10mi
Dew Point:   Wind: 7mph
Humidity: 80%   Direction: 260°W
Pressure: 29.53"   Gusts: NA
Location:  42.8676°N, 75.1875°W
Report Text: KRME 260553Z AUTO 26006KT 10SM FEW042 09/06 A2953 RMK AO2 SLP999 60010 T00940061 10117 20083 56010
Loading
Personal Weather Stations






























Interactive Weather Map
Tropical Storm Tracking
New forecast layout! Learn more

10-Day Weather Forecast

Advertisements
Track Severe Weather on mobile